Columbia, Connecticut
Current Conditions -  °F | °C
As of 3:52 PM on Friday 19 Dec 2014 (Local Time) from KIJD Reporting Station
Overcast Overcast  
Wind Chill: 29°   Ceiling: 3400
Heat Index: 34°   Visibility: 10mi
Dew Point: 21°   Wind: 6mph
Humidity: 59%   Direction: 310°NW
Pressure: 30.02"   Gusts: NA
Location:  41.7°N, 72.3°W
Report Text: KIJD 192052Z AUTO 31005KT 10SM OVC034 01/M06 A3002 RMK AO2 SLP169 T00111061 53017
Loading
Personal Weather Stations






























Interactive Weather Map New forecast layout! Learn more

10-Day Weather Forecast

Advertisements
Track Severe Weather on mobile